Time;durP1;ratioP1;P1;durP2;ratioP2;P2;SDS_P1;SDS_P2;PMS_P1;PMS_P2;Temp;Humidity;BMP_temperature;BMP_pressure;BME280_temperature;BME280_humidity;BME280_pressure;Samples;Min_cycle;Max_cycle;Signal;HPM_P1;HPM_P2
2022/08/19 00:02:23;;;;;;;25.85;23.25;;;;;;;20.57;100.00;100193.05;1673375;84;21055;-92
2022/08/19 00:04:55;;;;;;;25.65;23.22;;;;;;;20.56;100.00;100200.67;1670464;84;21536;-91
2022/08/19 00:07:26;;;;;;;28.23;23.12;;;;;;;20.54;100.00;100204.03;1664982;84;21262;-91
2022/08/19 00:09:54;;;;;;;24.87;22.48;;;;;;;20.54;100.00;100200.06;1670632;84;21114;-91
2022/08/19 00:12:22;;;;;;;26.68;23.87;;;;;;;20.55;100.00;100203.83;1664687;84;21075;-92
2022/08/19 00:14:54;;;;;;;26.05;23.50;;;;;;;20.61;100.00;100206.22;1670030;84;21568;-91
2022/08/19 00:17:22;;;;;;;25.70;23.20;;;;;;;20.66;100.00;100211.75;1672848;84;22021;-92
2022/08/19 00:19:49;;;;;;;25.77;23.22;;;;;;;20.67;100.00;100209.42;1663565;84;21905;-92
2022/08/19 00:22:17;;;;;;;24.90;22.27;;;;;;;20.57;100.00;100208.44;1670023;84;21062;-92
2022/08/19 00:24:47;;;;;;;24.05;21.73;;;;;;;20.53;100.00;100218.26;1668181;84;21533;-92
2022/08/19 00:27:14;;;;;;;27.30;23.50;;;;;;;20.51;100.00;100222.39;1672569;84;21011;-92
2022/08/19 00:29:43;;;;;;;24.25;21.95;;;;;;;20.53;100.00;100224.88;1680203;84;21011;-91
2022/08/19 00:32:13;;;;;;;26.40;22.60;;;;;;;20.54;100.00;100230.48;1676678;84;21786;-90
2022/08/19 00:34:43;;;;;;;23.30;20.90;;;;;;;20.52;100.00;100226.68;1673932;84;21091;-91
2022/08/19 00:37:15;;;;;;;27.05;23.95;;;;;;;20.52;100.00;100225.88;1677637;84;20999;-91
2022/08/19 00:39:42;;;;;;;26.35;23.92;;;;;;;20.52;100.00;100220.59;1674696;84;21051;-91
2022/08/19 00:42:09;;;;;;;26.45;23.65;;;;;;;20.48;100.00;100214.86;1671223;84;21031;-91
2022/08/19 00:44:39;;;;;;;25.75;23.22;;;;;;;20.45;100.00;100211.27;1676458;84;21803;-92
2022/08/19 00:47:07;;;;;;;25.17;22.35;;;;;;;20.44;100.00;100206.98;1670523;84;21034;-92
2022/08/19 00:49:45;;;;;;;23.25;21.05;;;;;;;20.40;100.00;100214.99;1670348;83;21098;-92
2022/08/19 00:52:29;;;;;;;24.60;22.05;;;;;;;20.38;100.00;100214.36;1681655;83;21039;-91
2022/08/19 00:54:58;;;;;;;24.63;22.15;;;;;;;20.37;100.00;100219.33;1667827;84;21015;-92
2022/08/19 00:57:36;;;;;;;24.72;22.25;;;;;;;20.31;100.00;100222.25;1675860;84;21153;-91
2022/08/19 01:00:09;;;;;;;23.75;21.45;;;;;;;20.25;100.00;100222.98;1657609;84;21097;-92
2022/08/19 01:02:38;;;;;;;25.90;23.35;;;;;;;20.24;100.00;100230.59;1671949;84;21086;-91
2022/08/19 01:05:18;;;;;;;25.05;22.55;;;;;;;20.23;100.00;100219.73;1682083;84;21105;-91
2022/08/19 01:07:47;;;;;;;25.23;22.93;;;;;;;20.21;100.00;100221.73;1681872;84;21743;-90
2022/08/19 01:10:21;;;;;;;24.73;22.33;;;;;;;20.18;100.00;100221.09;1682655;83;21166;-91
2022/08/19 01:12:56;;;;;;;24.92;22.32;;;;;;;20.13;100.00;100221.34;1669053;83;21054;-91
2022/08/19 01:15:34;;;;;;;24.80;22.37;;;;;;;20.08;100.00;100217.94;1667290;84;21017;-91
2022/08/19 01:18:08;;;;;;;23.95;21.45;;;;;;;20.03;100.00;100219.01;1652045;85;21068;-91
2022/08/19 01:20:42;;;;;;;24.80;22.40;;;;;;;20.04;100.00;100215.36;1674488;83;21083;-91
2022/08/19 01:23:10;;;;;;;24.20;21.73;;;;;;;20.08;100.00;100215.30;1671793;83;21181;-91
2022/08/19 01:25:54;;;;;;;23.62;21.42;;;;;;;20.06;100.00;100210.72;1688372;83;21481;-92
2022/08/19 01:28:27;;;;;;;24.57;22.17;;;;;;;20.05;100.00;100208.25;1678866;83;21031;-91
2022/08/19 01:30:55;;;;;;;25.10;22.52;;;;;;;20.05;100.00;100194.55;1679525;83;21019;-91
2022/08/19 01:33:23;;;;;;;24.60;22.27;;;;;;;20.06;100.00;100192.22;1679363;83;21125;-91
2022/08/19 01:35:52;;;;;;;23.92;21.55;;;;;;;20.09;100.00;100195.80;1677955;83;21135;-92
2022/08/19 01:38:26;;;;;;;24.35;21.90;;;;;;;20.10;100.00;100199.27;1677089;83;21002;-91
2022/08/19 01:40:53;;;;;;;24.35;22.02;;;;;;;20.07;100.00;100200.44;1674092;83;21023;-90
2022/08/19 01:43:20;;;;;;;24.12;21.73;;;;;;;20.05;100.00;100204.28;1677793;83;21030;-91
2022/08/19 01:45:51;;;;;;;24.35;21.90;;;;;;;20.05;100.00;100203.80;1675279;84;20948;-91
2022/08/19 01:48:18;;;;;;;24.27;21.95;;;;;;;20.06;100.00;100199.31;1643518;86;21097;-91
2022/08/19 01:50:47;;;;;;;23.60;21.30;;;;;;;20.06;100.00;100198.83;1649838;85;21026;-90
2022/08/19 01:53:16;;;;;;;24.77;22.45;;;;;;;20.09;100.00;100202.91;1666435;85;21118;-92
2022/08/19 01:55:44;;;;;;;22.90;20.72;;;;;;;20.12;100.00;100201.20;1656495;85;21108;-91
2022/08/19 01:58:21;;;;;;;23.90;21.60;;;;;;;20.13;100.00;100202.35;1664732;85;21118;-91
2022/08/19 02:00:50;;;;;;;23.47;21.12;;;;;;;20.15;100.00;100206.92;1654217;85;21130;-91
2022/08/19 02:03:17;;;;;;;25.88;23.12;;;;;;;20.13;100.00;100209.45;1682366;84;21422;-91
2022/08/19 02:05:45;;;;;;;24.25;21.97;;;;;;;20.10;100.00;100201.39;1665514;85;21030;-91
2022/08/19 02:08:18;;;;;;;23.90;21.50;;;;;;;20.08;100.00;100202.59;1662826;85;21022;-91
2022/08/19 02:10:46;;;;;;;24.05;21.48;;;;;;;20.04;100.00;100213.20;1657036;85;21152;-91
2022/08/19 02:13:13;;;;;;;24.35;22.10;;;;;;;20.00;100.00;100215.41;1683785;84;21161;-91
2022/08/19 02:15:41;;;;;;;23.90;21.57;;;;;;;19.98;100.00;100222.21;1665429;85;21563;-92
2022/08/19 02:18:09;;;;;;;23.83;21.62;;;;;;;19.92;100.00;100219.48;1696990;83;21053;-92
2022/08/19 02:20:40;;;;;;;24.52;22.07;;;;;;;19.84;100.00;100224.37;1673074;84;21516;-91
2022/08/19 02:23:12;;;;;;;24.70;22.27;;;;;;;19.80;100.00;100226.56;1668337;83;21030;-90
2022/08/19 02:25:40;;;;;;;26.07;23.38;;;;;;;19.77;100.00;100229.56;1660059;83;21823;-91
2022/08/19 02:28:11;;;;;;;25.17;22.70;;;;;;;19.74;100.00;100225.16;1686482;83;21049;-91
2022/08/19 02:30:42;;;;;;;25.95;23.38;;;;;;;19.74;100.00;100234.40;1680605;83;21050;-91
2022/08/19 02:33:09;;;;;;;26.30;23.70;;;;;;;19.69;100.00;100230.98;1669596;83;21046;-91
2022/08/19 02:35:43;;;;;;;27.37;24.70;;;;;;;19.66;100.00;100239.30;1681068;83;21094;-91
2022/08/19 02:38:26;;;;;;;26.60;24.00;;;;;;;19.61;100.00;100238.53;1654335;85;20999;-91
2022/08/19 02:41:00;;;;;;;24.52;22.15;;;;;;;19.52;100.00;100237.79;1676511;83;21129;-91
2022/08/19 02:43:32;;;;;;;25.82;23.32;;;;;;;19.51;100.00;100235.34;1674908;83;20963;-90
2022/08/19 02:46:00;;;;;;;24.65;22.17;;;;;;;19.52;100.00;100237.79;1683083;83;21059;-92
2022/08/19 02:48:27;;;;;;;26.27;23.62;;;;;;;19.52;100.00;100223.27;1687099;83;21035;-91
2022/08/19 02:51:00;;;;;;;24.63;22.40;;;;;;;19.54;100.00;100226.55;1683366;83;21083;-91
2022/08/19 02:53:32;;;;;;;24.20;21.95;;;;;;;19.53;100.00;100235.47;1687898;83;21053;-91
2022/08/19 02:55:58;;;;;;;26.02;23.50;;;;;;;19.52;100.00;100236.47;1672039;83;21007;-92
2022/08/19 02:58:26;;;;;;;23.67;21.25;;;;;;;19.52;100.00;100236.98;1678753;83;20995;-92
2022/08/19 03:00:56;;;;;;;24.05;21.48;;;;;;;19.50;100.00;100235.02;1681869;83;21066;-92
2022/08/19 03:03:26;;;;;;;36.53;22.42;;;;;;;19.49;100.00;100246.09;1675769;83;21083;-91
2022/08/19 03:06:12;;;;;;;23.05;20.62;;;;;;;19.50;100.00;100258.30;1680685;83;21062;-91
2022/08/19 03:08:43;;;;;;;22.77;20.27;;;;;;;19.49;100.00;100254.02;1684667;83;21054;-91
2022/08/19 03:11:20;;;;;;;;;;;;;;;19.48;100.00;100258.14;1686124;83;21529;-92
2022/08/19 03:13:54;;;;;;;21.25;19.23;;;;;;;19.45;100.00;100251.41;1677483;83;20179;-92
2022/08/19 03:16:32;;;;;;;20.35;18.40;;;;;;;19.43;100.00;100252.08;1684235;83;21201;-91
2022/08/19 03:19:00;;;;;;;23.80;21.02;;;;;;;19.41;100.00;100253.27;1684683;83;21050;-91
2022/08/19 03:21:32;;;;;;;23.98;20.55;;;;;;;19.35;100.00;100254.33;1682103;83;21949;-91
2022/08/19 03:24:06;;;;;;;22.55;20.15;;;;;;;19.26;100.00;100254.61;1685091;83;21042;-91
2022/08/19 03:26:40;;;;;;;26.37;21.65;;;;;;;19.17;100.00;100254.69;1677652;83;22205;-91
2022/08/19 03:29:10;;;;;;;21.25;19.10;;;;;;;19.14;100.00;100262.16;1680044;83;21859;-91
2022/08/19 03:31:41;;;;;;;22.05;19.90;;;;;;;19.12;100.00;100266.27;1674707;83;21054;-93
2022/08/19 03:34:17;;;;;;;24.55;21.12;;;;;;;19.13;100.00;100267.91;1668087;83;21538;-91
2022/08/19 03:36:47;;;;;;;24.87;22.37;;;;;;;19.17;100.00;100267.89;1665232;83;20979;-91
2022/08/19 03:39:21;;;;;;;23.77;21.27;;;;;;;19.20;100.00;100255.63;1678922;83;21502;-91
2022/08/19 03:41:51;;;;;;;26.48;22.67;;;;;;;19.25;100.00;100252.97;1681872;83;21144;-92
2022/08/19 03:44:22;;;;;;;27.70;22.67;;;;;;;19.30;100.00;100255.88;1678210;83;21023;-92
2022/08/19 03:46:56;;;;;;;24.80;22.10;;;;;;;19.35;100.00;100258.29;1683914;83;21532;-92
2022/08/19 03:49:29;;;;;;;27.10;24.20;;;;;;;19.42;100.00;100266.31;1675751;83;20965;-88
2022/08/19 03:52:00;;;;;;;27.55;24.80;;;;;;;19.48;100.00;100262.94;1684298;83;20999;-89
2022/08/19 03:54:28;;;;;;;26.82;24.12;;;;;;;19.53;100.00;100267.16;1667272;84;21256;-89
2022/08/19 03:56:57;;;;;;;28.07;24.80;;;;;;;19.57;100.00;100264.97;1672405;84;21038;-89
2022/08/19 03:59:33;;;;;;;27.50;24.80;;;;;;;19.61;100.00;100267.58;1672183;84;21091;-88
2022/08/19 04:02:08;;;;;;;26.20;23.50;;;;;;;19.68;100.00;100265.00;1665824;84;21015;-89
2022/08/19 04:04:37;;;;;;;26.33;23.22;;;;;;;19.76;100.00;100264.90;1664986;84;21026;-88
2022/08/19 04:07:05;;;;;;;25.70;23.12;;;;;;;19.83;100.00;100259.19;1662329;84;21131;-89
2022/08/19 04:09:37;;;;;;;25.48;23.05;;;;;;;19.91;100.00;100257.51;1664074;84;21059;-89
2022/08/19 04:12:06;;;;;;;24.82;22.50;;;;;;;19.98;100.00;100256.56;1677701;84;21089;-90
2022/08/19 04:14:36;;;;;;;24.80;22.30;;;;;;;20.04;100.00;100258.97;1672122;84;21497;-90
2022/08/19 04:17:05;;;;;;;50.95;46.33;;;;;;;20.13;100.00;100259.17;1653570;85;37322;-90
2022/08/19 04:19:33;;;;;;;42.80;38.88;;;;;;;20.24;100.00;100260.98;1677159;84;21537;-89
2022/08/19 04:22:03;;;;;;;40.28;36.48;;;;;;;20.35;100.00;100252.57;1670114;84;21036;-90
2022/08/19 04:24:30;;;;;;;29.18;26.27;;;;;;;20.46;100.00;100252.08;1672515;84;21011;-90
2022/08/19 04:27:02;;;;;;;26.20;23.65;;;;;;;20.57;100.00;100252.07;1676000;84;21106;-91
2022/08/19 04:29:35;;;;;;;26.40;23.85;;;;;;;20.68;100.00;100263.96;1661405;84;21062;-90
2022/08/19 04:32:06;;;;;;;50.17;45.17;;;;;;;20.78;100.00;100271.59;1671893;84;21143;-88
2022/08/19 04:34:33;;;;;;;42.20;37.80;;;;;;;20.86;100.00;100270.13;1674659;84;21000;-90
2022/08/19 04:37:01;;;;;;;30.08;27.22;;;;;;;20.96;100.00;100269.80;1673064;84;21015;-89
2022/08/19 04:45:11;;;;;;;62.03;56.08;;;;;;;21.23;100.00;100269.47;1670235;84;21129;-90
2022/08/19 04:47:44;;;;;;;33.78;30.40;;;;;;;21.33;100.00;100267.81;1674740;84;21043;-91
2022/08/19 04:50:11;;;;;;;31.77;28.85;;;;;;;21.41;100.00;100278.74;1669202;84;21042;-90
2022/08/19 04:52:42;;;;;;;33.53;30.43;;;;;;;21.50;100.00;100282.06;1668698;83;21043;-93
2022/08/19 04:55:12;;;;;;;33.08;29.95;;;;;;;21.60;100.00;100281.21;1673965;83;23541;-91
2022/08/19 04:57:40;;;;;;;41.68;37.70;;;;;;;21.70;100.00;100277.70;1672377;83;21154;-91
2022/08/19 05:00:10;;;;;;;43.17;38.85;;;;;;;21.80;100.00;100283.16;1666757;84;21031;-90
2022/08/19 05:02:38;;;;;;;51.45;43.08;;;;;;;21.87;100.00;100283.98;1673841;84;21109;-93
2022/08/19 05:05:06;;;;;;;31.85;28.75;;;;;;;21.92;100.00;100287.38;1665616;84;21046;-92
2022/08/19 05:07:34;;;;;;;27.22;24.70;;;;;;;21.97;100.00;100298.19;1662246;84;21073;-91
2022/08/19 05:10:02;;;;;;;30.52;27.42;;;;;;;22.01;100.00;100293.62;1680089;84;21921;-92
2022/08/19 05:12:34;;;;;;;26.17;23.45;;;;;;;22.09;100.00;100299.76;1669604;84;21069;-90
2022/08/19 05:15:08;;;;;;;26.52;24.02;;;;;;;22.16;100.00;100301.42;1666185;84;21019;-90
2022/08/19 05:22:31;;;;;;;26.97;24.52;;;;;;;22.28;100.00;100298.17;1663096;84;21089;-91
2022/08/19 05:22:55;;;;;;;25.95;23.07;;;;;;;22.52;100.00;100298.16;1667636;84;21145;-92
2022/08/19 05:25:24;;;;;;;26.60;24.10;;;;;;;22.65;100.00;100305.33;1665505;84;21572;-91
2022/08/19 05:27:51;;;;;;;25.75;23.05;;;;;;;22.75;100.00;100300.94;1665760;84;21189;-90
2022/08/19 05:30:19;;;;;;;25.92;23.27;;;;;;;22.88;100.00;100297.47;1674053;84;21573;-91
2022/08/19 05:32:46;;;;;;;26.33;23.75;;;;;;;23.03;100.00;100303.91;1664597;84;21019;-91
2022/08/19 05:35:14;;;;;;;26.05;23.55;;;;;;;23.14;100.00;100301.94;1663479;84;21244;-92
2022/08/19 05:37:42;;;;;;;28.42;25.48;;;;;;;23.26;100.00;100305.65;1669700;84;21012;-93
2022/08/19 05:40:13;;;;;;;25.23;22.93;;;;;;;23.37;100.00;100306.84;1671947;84;21027;-90
2022/08/19 05:42:40;;;;;;;;;;;;;;;23.46;100.00;100303.45;1665891;84;21059;-90
2022/08/19 05:45:09;;;;;;;25.05;22.35;;;;;;;23.52;100.00;100303.94;1680953;84;20170;-91
2022/08/19 05:47:41;;;;;;;25.68;22.80;;;;;;;23.58;100.00;100308.44;1685208;84;22006;-92
2022/08/19 05:50:09;;;;;;;26.48;22.67;;;;;;;23.67;100.00;100309.01;1669440;84;21438;-91
2022/08/19 05:52:40;;;;;;;25.50;23.00;;;;;;;23.74;100.00;100307.14;1676238;84;21356;-93
2022/08/19 05:55:08;;;;;;;24.10;21.87;;;;;;;23.82;100.00;100308.77;1675145;84;21055;-94
2022/08/19 05:57:35;;;;;;;24.52;22.15;;;;;;;23.90;100.00;100318.33;1674456;83;21085;-95
2022/08/19 06:00:09;;;;;;;23.75;21.37;;;;;;;24.03;100.00;100315.66;1678304;83;21177;-95
2022/08/19 06:02:37;;;;;;;24.43;21.70;;;;;;;24.15;100.00;100310.48;1678441;83;21050;-93
2022/08/19 06:05:09;;;;;;;23.67;21.15;;;;;;;24.23;100.00;100307.58;1674106;83;21489;-92
2022/08/19 06:07:38;;;;;;;24.20;21.80;;;;;;;24.36;100.00;100315.16;1674855;83;21078;-94
2022/08/19 06:10:09;;;;;;;25.02;22.45;;;;;;;24.47;100.00;100306.52;1676892;83;21141;-93
2022/08/19 06:12:38;;;;;;;24.52;22.22;;;;;;;24.54;100.00;100307.28;1676037;83;21161;-92
2022/08/19 06:15:13;;;;;;;24.50;22.10;;;;;;;24.60;100.00;100313.56;1682363;83;21042;-95
2022/08/19 06:17:41;;;;;;;25.27;21.85;;;;;;;24.66;100.00;100312.72;1680043;83;21038;-93
2022/08/19 06:20:13;;;;;;;22.37;20.05;;;;;;;24.74;100.00;100318.31;1676554;83;21083;-96
2022/08/19 06:22:45;;;;;;;21.42;19.48;;;;;;;24.83;100.00;100310.89;1680591;83;21053;-95
2022/08/19 06:25:14;;;;;;;23.15;20.90;;;;;;;24.91;100.00;100315.94;1666290;83;21506;-96
2022/08/19 06:27:44;;;;;;;22.42;20.23;;;;;;;24.99;100.00;100313.00;1687815;83;20992;-94
2022/08/19 06:30:13;;;;;;;23.20;20.90;;;;;;;25.10;100.00;100316.80;1673058;83;21304;-92
2022/08/19 06:32:42;;;;;;;23.02;20.82;;;;;;;25.23;100.00;100319.86;1675434;83;21047;-91
2022/08/19 06:35:09;;;;;;;21.97;19.73;;;;;;;25.35;100.00;100324.74;1671009;83;21030;-94
2022/08/19 06:41:10;;;;;;;23.15;20.52;;;;;;;25.56;100.00;100324.56;1681924;85;20975;-93
2022/08/19 06:44:20;;;;;;;23.47;20.25;;;;;;;25.70;100.00;100330.56;1675939;83;21063;-92
2022/08/19 06:46:51;;;;;;;23.67;21.37;;;;;;;25.82;100.00;100328.77;1681227;83;20979;-93
2022/08/19 06:49:30;;;;;;;24.00;21.48;;;;;;;25.96;100.00;100328.89;1679831;83;21106;-92
2022/08/19 06:51:58;;;;;;;24.35;21.33;;;;;;;26.08;100.00;100327.64;1680133;83;21160;-92
2022/08/19 06:54:31;;;;;;;22.50;20.02;;;;;;;26.20;100.00;100325.55;1674625;83;21007;-91
2022/08/19 06:57:02;;;;;;;23.70;21.52;;;;;;;26.29;100.00;100329.54;1674696;85;21759;-92
2022/08/19 06:59:32;;;;;;;22.48;20.43;;;;;;;26.31;100.00;100327.46;1685234;83;21078;-92
2022/08/19 07:02:06;;;;;;;23.07;21.00;;;;;;;26.29;100.00;100334.88;1702007;82;21077;-92
2022/08/19 07:04:35;;;;;;;23.22;21.02;;;;;;;26.21;100.00;100325.31;1647782;84;21168;-93
2022/08/19 07:07:09;;;;;;;23.87;21.65;;;;;;;26.23;100.00;100331.25;1664852;84;21063;-91
2022/08/19 07:09:39;;;;;;;23.22;20.88;;;;;;;26.31;100.00;100327.46;1662943;84;21031;-92
2022/08/19 07:12:11;;;;;;;21.85;19.73;;;;;;;26.36;100.00;100322.25;1655963;84;21106;-92
2022/08/19 07:14:42;;;;;;;23.60;21.30;;;;;;;26.40;100.00;100319.94;1681016;84;21394;-92
2022/08/19 07:17:14;;;;;;;23.75;21.37;;;;;;;26.44;100.00;100316.59;1663106;84;21920;-93
2022/08/19 07:19:46;;;;;;;22.77;20.82;;;;;;;26.49;100.00;100318.57;1664435;84;21024;-92
2022/08/19 07:22:14;;;;;;;22.20;20.12;;;;;;;26.57;100.00;100318.24;1666757;84;21546;-94
2022/08/19 07:24:43;;;;;;;22.65;20.62;;;;;;;26.65;100.00;100316.28;1668704;84;21047;-92
2022/08/19 07:27:14;;;;;;;23.90;21.65;;;;;;;26.73;100.00;100323.42;1666984;84;21059;-92
2022/08/19 07:29:41;;;;;;;22.62;20.62;;;;;;;26.83;100.00;100319.41;1664471;84;21129;-93
2022/08/19 07:32:09;;;;;;;22.58;20.25;;;;;;;26.92;100.00;100317.48;1661676;84;21118;-92
2022/08/19 07:34:37;;;;;;;23.55;21.45;;;;;;;27.04;100.00;100317.49;1671189;84;21038;-95
2022/08/19 07:37:07;;;;;;;22.95;20.72;;;;;;;27.18;100.00;100318.61;1670436;84;21109;-93
2022/08/19 07:39:37;;;;;;;23.27;21.05;;;;;;;27.23;100.00;100310.70;1666112;84;21020;-91
2022/08/19 07:42:09;;;;;;;24.15;21.65;;;;;;;27.31;100.00;100313.02;1663569;84;21205;-95
2022/08/19 07:44:37;;;;;;;;;;;;;;;27.36;100.00;100310.45;1672663;84;21008;-91
2022/08/19 07:47:06;;;;;;;23.05;20.52;;;;;;;27.42;100.00;100312.73;1665665;84;20792;-91
2022/08/19 07:49:34;;;;;;;24.52;22.30;;;;;;;27.46;100.00;100317.09;1659065;84;21056;-94
2022/08/19 07:52:08;;;;;;;24.70;22.30;;;;;;;27.45;100.00;100318.13;1666080;84;21110;-93
2022/08/19 07:54:38;;;;;;;22.55;20.52;;;;;;;27.42;100.00;100318.09;1678108;84;21154;-92
2022/08/19 07:57:09;;;;;;;24.07;21.95;;;;;;;27.45;100.00;100320.80;1671426;85;21083;-93
2022/08/19 07:59:39;;;;;;;23.02;20.88;;;;;;;27.55;100.00;100321.86;1667486;84;21091;-93
2022/08/19 08:02:11;;;;;;;23.90;21.52;;;;;;;27.66;100.00;100323.39;1664221;84;21636;-94
2022/08/19 08:10:09;;;;;;;24.20;21.87;;;;;;;28.15;100.00;100315.80;1674044;83;21388;-95
2022/08/19 08:12:43;;;;;;;22.50;20.50;;;;;;;28.39;100.00;100314.88;1671536;83;20995;-95
2022/08/19 08:15:18;;;;;;;21.02;19.12;;;;;;;28.56;100.00;100315.72;1672898;83;20999;-95
2022/08/19 08:17:46;;;;;;;20.52;18.67;;;;;;;28.76;100.00;100311.76;1673649;83;20960;-95
2022/08/19 08:20:20;;;;;;;20.82;19.02;;;;;;;28.91;100.00;100313.33;1676392;83;21556;-95
2022/08/19 08:23:25;;;;;;;21.70;19.65;;;;;;;29.02;100.00;100316.17;1670886;83;21549;-96
2022/08/19 08:34:32;;;;;;;19.55;17.75;;;;;;;29.28;100.00;100310.09;1671299;85;21485;-95
2022/08/19 08:41:31;;;;;;;21.05;18.82;;;;;;;29.57;100.00;100314.50;1667216;85;21691;-96
2022/08/19 08:48:53;;;;;;;19.00;17.48;;;;;;;29.69;100.00;100317.88;1682762;85;21077;-96
2022/08/19 08:55:48;;;;;;;20.70;18.87;;;;;;;29.84;100.00;100316.42;1676205;85;21087;-96
2022/08/19 09:03:23;;;;;;;19.32;17.73;;;;;;;30.00;100.00;100312.08;1676668;85;21000;-96
2022/08/19 09:06:06;;;;;;;18.55;16.87;;;;;;;30.17;100.00;100310.08;1676441;84;21061;-95
2022/08/19 09:09:03;;;;;;;18.98;17.37;;;;;;;30.29;100.00;100312.61;1681929;85;21668;-96
2022/08/19 09:11:49;;;;;;;19.65;17.85;;;;;;;30.28;100.00;100313.70;1656040;86;21136;-95
2022/08/19 09:14:41;;;;;;;19.07;17.37;;;;;;;30.42;100.00;100311.92;1652113;85;21054;-96
2022/08/19 09:17:09;;;;;;;18.77;17.17;;;;;;;30.56;100.00;100315.03;1670405;83;21105;-96
2022/08/19 09:20:08;;;;;;;19.85;18.05;;;;;;;30.63;100.00;100308.36;1670532;84;21073;-96
2022/08/19 09:22:43;;;;;;;18.40;16.80;;;;;;;30.71;100.00;100311.12;1665603;85;21061;-92
2022/08/19 09:25:14;;;;;;;19.27;17.48;;;;;;;30.64;100.00;100310.53;1675813;85;21180;-95
2022/08/19 09:27:48;;;;;;;19.02;17.32;;;;;;;30.46;100.00;100309.82;1675144;84;21091;-96
2022/08/19 09:30:23;;;;;;;18.12;16.40;;;;;;;30.44;100.00;100314.63;1686833;83;20963;-96
2022/08/19 09:32:55;;;;;;;17.00;15.40;;;;;;;30.55;100.00;100311.52;1665314;85;21076;-96
2022/08/19 09:35:26;;;;;;;17.48;15.88;;;;;;;30.70;100.00;100308.16;1672055;84;21077;-96
2022/08/19 09:37:56;;;;;;;;;;;;;;;30.71;100.00;100315.15;1687333;84;21248;-95
2022/08/19 09:40:30;;;;;;;16.53;15.13;;;;;;;30.74;100.00;100310.59;1685128;85;20145;-96
2022/08/19 09:43:00;;;;;;;16.55;15.00;;;;;;;30.81;100.00;100307.14;1685144;83;21066;-96
2022/08/19 09:45:27;;;;;;;18.30;16.57;;;;;;;30.95;100.00;100306.70;1672664;83;21081;-96
2022/08/19 09:47:54;;;;;;;17.87;16.17;;;;;;;31.11;100.00;100311.14;1671926;83;21607;-96
2022/08/19 09:50:25;;;;;;;17.52;15.48;;;;;;;31.23;100.00;100311.45;1672975;85;21051;-96
2022/08/19 09:52:53;;;;;;;17.07;15.68;;;;;;;31.45;100.00;100305.91;1664453;85;21084;-96
2022/08/19 09:55:20;;;;;;;15.95;14.55;;;;;;;31.45;100.00;100305.91;1666832;85;21120;-96
2022/08/19 09:57:49;;;;;;;16.90;15.35;;;;;;;31.55;100.00;100307.83;1663605;84;21398;-96
2022/08/19 10:00:20;;;;;;;15.43;14.05;;;;;;;31.57;100.00;100309.72;1667891;83;21737;-96
2022/08/19 10:02:51;;;;;;;15.55;14.05;;;;;;;31.66;100.00;100311.36;1683697;84;21898;-96
2022/08/19 10:08:07;;;;;;;15.90;14.45;;;;;;;31.87;100.00;100309.05;1669501;84;21034;-96
2022/08/19 10:10:45;;;;;;;16.85;15.30;;;;;;;31.78;100.00;100303.91;1669527;85;21086;-95
2022/08/19 10:13:23;;;;;;;16.70;15.18;;;;;;;31.59;100.00;100314.31;1668831;84;21527;-96
2022/08/19 10:15:56;;;;;;;16.07;14.68;;;;;;;31.36;100.00;100315.55;1670731;84;21254;-96
2022/08/19 10:18:25;;;;;;;16.23;14.83;;;;;;;31.44;100.00;100318.56;1677752;85;21563;-96
2022/08/19 10:21:08;;;;;;;16.02;14.60;;;;;;;31.44;100.00;100318.56;1672794;84;21118;-96
2022/08/19 10:23:47;;;;;;;15.08;13.85;;;;;;;31.82;100.00;100307.67;1657469;84;21022;-96
2022/08/19 10:26:22;;;;;;;15.60;14.30;;;;;;;32.02;100.00;100310.95;1665235;84;21086;-96
2022/08/19 10:28:51;;;;;;;14.13;12.78;;;;;;;32.09;100.00;100305.31;1678662;85;21654;-96
2022/08/19 10:31:23;;;;;;;14.40;13.08;;;;;;;32.09;100.00;100305.31;1675006;84;21534;-96
2022/08/19 10:33:58;;;;;;;14.45;12.98;;;;;;;32.06;93.82;100304.48;1673858;85;21074;-94
2022/08/19 10:36:35;;;;;;;14.35;13.13;;;;;;;31.91;93.90;100301.25;1678753;84;21000;-95
2022/08/19 10:39:08;;;;;;;15.13;13.88;;;;;;;31.71;92.32;100295.28;1662381;85;21046;-95
2022/08/19 10:41:38;;;;;;;15.05;13.75;;;;;;;31.66;94.58;100295.22;1678550;84;21828;-90
2022/08/19 10:44:10;;;;;;;16.27;14.77;;;;;;;31.69;94.91;100294.73;1678839;85;21553;-91
2022/08/19 10:46:46;;;;;;;15.98;14.30;;;;;;;31.81;96.19;100291.80;1678606;85;20979;-92
2022/08/19 10:49:15;;;;;;;14.35;12.93;;;;;;;31.96;97.50;100299.91;1677412;85;21024;-93
2022/08/19 10:54:19;;;;;;;15.13;13.68;;;;;;;32.33;92.44;100291.36;1648702;84;21189;-92
2022/08/19 10:56:53;;;;;;;14.63;13.43;;;;;;;32.38;84.27;100290.83;1678689;85;20948;-95
2022/08/19 10:59:29;;;;;;;15.05;13.58;;;;;;;32.61;85.46;100271.69;1679499;85;21545;-93
2022/08/19 11:02:01;;;;;;;13.28;12.15;;;;;;;32.61;85.46;100271.69;1679094;85;21003;-94
2022/08/19 11:04:28;;;;;;;14.40;13.20;;;;;;;32.97;82.68;100267.03;1678687;84;21133;-93
2022/08/19 11:06:58;;;;;;;14.00;12.50;;;;;;;32.97;82.68;100267.03;1679511;85;21836;-93
2022/08/19 11:09:30;;;;;;;;;;;;;;;33.11;78.82;100274.55;1681294;84;21071;-94
2022/08/19 11:11:57;;;;;;;14.73;13.53;;;;;;;33.19;81.00;100276.69;1667986;84;20158;-93
2022/08/19 11:14:30;;;;;;;13.65;12.43;;;;;;;33.23;79.71;100279.08;1679602;85;21501;-93
2022/08/19 11:16:59;;;;;;;13.98;12.68;;;;;;;33.18;74.53;100281.26;1678761;85;21521;-92
2022/08/19 11:19:28;;;;;;;14.13;12.93;;;;;;;33.17;72.61;100276.94;1701655;83;21892;-94
2022/08/19 11:22:02;;;;;;;13.22;12.15;;;;;;;33.22;72.57;100280.72;1679054;84;20999;-93
2022/08/19 11:24:30;;;;;;;12.70;11.60;;;;;;;33.29;74.53;100275.83;1678114;85;21083;-93
2022/08/19 11:27:08;;;;;;;13.50;12.40;;;;;;;33.36;72.39;100270.17;1664827;84;21055;-92
2022/08/19 11:29:39;;;;;;;13.75;12.45;;;;;;;33.40;69.45;100263.13;1673931;84;21131;-94
2022/08/19 11:32:10;;;;;;;14.70;13.25;;;;;;;33.47;69.65;100260.41;1679389;84;21860;-94
2022/08/19 11:34:37;;;;;;;13.58;12.43;;;;;;;33.58;65.84;100267.08;1675215;85;21082;-93
2022/08/19 11:37:08;;;;;;;13.90;12.68;;;;;;;33.73;64.86;100266.19;1679618;84;21087;-96
2022/08/19 11:39:39;;;;;;;13.05;11.95;;;;;;;33.82;65.66;100265.87;1675151;85;21024;-95
2022/08/19 11:44:56;;;;;;;12.15;11.15;;;;;;;34.03;64.44;100261.16;1673129;85;21155;-96
2022/08/19 11:47:30;;;;;;;47.17;14.18;;;;;;;34.20;65.59;100258.05;1668670;85;21560;-93
2022/08/19 11:50:01;;;;;;;14.60;11.75;;;;;;;34.35;63.88;100272.50;1666455;85;21022;-93
2022/08/19 11:52:29;;;;;;;12.60;11.30;;;;;;;34.41;66.05;100263.32;1659750;85;21074;-94
2022/08/19 11:54:56;;;;;;;15.53;10.68;;;;;;;34.14;66.71;100249.73;1665929;85;21102;-93
2022/08/19 11:57:23;;;;;;;11.43;9.55;;;;;;;33.69;68.02;100254.36;1668256;85;21173;-94
2022/08/19 11:59:52;;;;;;;12.95;9.10;;;;;;;33.17;64.58;100266.15;1665622;85;21555;-93
2022/08/19 12:02:19;;;;;;;28.57;9.03;;;;;;;32.51;59.17;100260.36;1663241;85;21018;-95
2022/08/19 12:04:47;;;;;;;10.58;9.68;;;;;;;31.55;55.64;100270.16;1663328;85;21110;-94
2022/08/19 12:07:14;;;;;;;10.23;9.30;;;;;;;29.21;71.44;100273.27;1666397;85;21043;-93
2022/08/19 12:09:43;;;;;;;10.80;9.48;;;;;;;29.21;71.44;100273.27;1663906;85;21769;-90
2022/08/19 12:12:14;;;;;;;9.38;8.20;;;;;;;28.55;85.01;100287.83;1660532;84;21022;-92
2022/08/19 12:14:46;;;;;;;11.10;7.75;;;;;;;27.89;73.39;100293.59;1665213;84;21020;-96
2022/08/19 12:17:16;;;;;;;12.35;8.30;;;;;;;27.37;73.29;100282.67;1664497;85;21084;-92